Bolman HR Speed Test Log

Averages  Max Speed    
1 to 25 of 220** for City Bolman HR
Time
  
  Speed   Provider Size    User ConnectID   TestID  
3/5/18 10:01:15 pm 4.62 Mbps 578 kB/sHrvatski 6.1 MB8541630173980 TeZIsBW1t 
3/5/18 10:00:54 pm 24.56 Mbps 3.07 MB/sHrvatski 49.5 MB8541630173980 R86ElKI7J 
3/5/18 9:59:31 pm 4.17 Mbps 521 kB/sHrvatski 3.7 MB8541630173980 EnsFiaDZc 
3/5/18 9:59:14 pm 14.91 Mbps 1.86 MB/sHrvatski 118 MB8541630173980 sQc83ZAeu 
3/5/18 9:48:35 pm 4.58 Mbps 573 kB/sHrvatski 6.1 MB8541630173980 BDpQXOzCG 
3/5/18 9:48:12 pm 20.04 Mbps 2.51 MB/sHrvatski 30.6 MB8541630173980 ArZJ0k6uz 
2/23/18 4:13:10 pm 375 kbps 47 kB/sHrvatski 256 kBmislav12348541630272379 w6sdytqNg 
2/23/18 4:13:03 pm 4.2 Mbps 525 kB/sHrvatski 6.4 MBmislav12348541630272379 y1Wp93VdM 
2/23/18 4:12:43 pm 359 kbps 45 kB/sHrvatski 256 kBmislav12348541630272379 spE1SvfRF 
2/23/18 4:12:36 pm 3.84 Mbps 480 kB/sHrvatski 6.2 MBmislav12348541630272379 1X3vWTJ6q 
2/23/18 3:58:10 pm 380 kbps 48 kB/sHrvatski 256 kBmislav12348541630272379 ySRr8A9IT 
2/23/18 3:58:03 pm 4.2 Mbps 525 kB/sHrvatski 6.3 MBmislav12348541630272379 Chvats89x 
2/23/18 3:57:41 pm 361 kbps 45 kB/sHrvatski 256 kBmislav12348541630272379 9jE4F1loX 
2/23/18 3:57:34 pm 3.85 Mbps 482 kB/sHrvatski 6.3 MBmislav12348541630272379 t7zWAFu3V 
2/23/18 3:43:08 pm 369 kbps 46 kB/sHrvatski 256 kBmislav12348541630272379 wo4nRgIqU 
2/23/18 3:43:01 pm 4.19 Mbps 524 kB/sHrvatski 6.2 MBmislav12348541630272379 HBVynt6Kw 
2/23/18 3:42:39 pm 364 kbps 46 kB/sHrvatski 256 kBmislav12348541630272379 w6GVkOLYj 
2/23/18 3:42:32 pm 3.84 Mbps 480 kB/sHrvatski 6.3 MBmislav12348541630272379 47CxLZkNu 
2/23/18 3:28:09 pm 358 kbps 45 kB/sHrvatski 256 kBmislav12348541630272379 4SLng2y9f 
2/23/18 3:28:02 pm 3.47 Mbps 434 kB/sHrvatski 5.8 MBmislav12348541630272379 GBsDzmX27 
2/23/18 3:27:41 pm 355 kbps 44 kB/sHrvatski 256 kBmislav12348541630272379 m2kjz3JTh 
2/23/18 3:27:33 pm 3.06 Mbps 382 kB/sHrvatski 5.8 MBmislav12348541630272379 I7UcRFe9t 
2/23/18 3:13:04 pm 362 kbps 45 kB/sHrvatski 256 kBmislav12348541630272379 hBeFq1oWS 
2/23/18 3:12:57 pm 3.46 Mbps 432 kB/sHrvatski 5.4 MBmislav12348541630272379 Jh0Osk2EY 
2/23/18 3:12:38 pm 357 kbps 45 kB/sHrvatski 256 kBmislav12348541630272379 yT7an6h5m 
  
** Partial Results: The most recent results have been displayed. Results over 50 Mbps are highlighted.
Calculated from graphed results above not entire query.
Displaying Internet Speed Test results for City Bolman HR

Minimum

Min 3.06 Mbps : 0.36 Mbps

Average

Avg 7.8 Mbps : 1.31 Mbps

Maximum

Max 24.56 Mbps : 4.62 Mbps

Minimum

Min: 3.06 Mbps : 0.36 Mbps |

Average

Avg: 7.8 Mbps : 1.31 Mbps |

Maximum

Max: 24.56 Mbps : 4.62 Mbps